createdAt,value
2019-05-06T00:02:09.870Z,2.80
2019-05-06T00:04:44.708Z,2.80
2019-05-06T00:07:17.080Z,2.79
2019-05-06T00:09:49.860Z,2.81
2019-05-06T00:12:24.005Z,2.80
2019-05-06T00:14:56.816Z,2.79
2019-05-06T00:17:29.385Z,2.75
2019-05-06T00:20:04.123Z,2.74
2019-05-06T00:22:36.176Z,2.74
2019-05-06T00:25:14.088Z,2.74
2019-05-06T00:27:54.296Z,2.73
2019-05-06T00:30:26.487Z,2.72
2019-05-06T00:32:58.836Z,2.74
2019-05-06T00:35:31.444Z,2.75
2019-05-06T00:38:04.499Z,2.76
2019-05-06T00:40:54.775Z,2.77
2019-05-06T00:43:27.414Z,2.79
2019-05-06T00:46:00.770Z,2.78
2019-05-06T00:48:34.098Z,2.77
2019-05-06T00:51:07.198Z,2.75
2019-05-06T00:53:43.915Z,2.73
2019-05-06T00:56:16.595Z,2.70
2019-05-06T00:58:49.154Z,2.68
2019-05-06T01:01:26.977Z,2.68
2019-05-06T01:03:56.254Z,2.67
2019-05-06T01:06:29.056Z,2.66
2019-05-06T01:09:04.596Z,2.66
2019-05-06T01:11:39.121Z,2.63
2019-05-06T01:14:14.812Z,2.60
2019-05-06T01:16:47.745Z,2.59
2019-05-06T01:19:20.185Z,2.57
2019-05-06T01:21:54.014Z,2.54
2019-05-06T01:24:27.205Z,2.51
2019-05-06T01:26:59.940Z,2.46
2019-05-06T01:29:34.622Z,2.42
2019-05-06T01:32:06.845Z,2.38
2019-05-06T01:34:39.330Z,2.35
2019-05-06T01:37:14.270Z,2.31
2019-05-06T01:39:54.184Z,2.29
2019-05-06T01:42:46.870Z,2.26
2019-05-06T01:45:19.965Z,2.25
2019-05-06T01:47:54.339Z,2.23
2019-05-06T01:50:27.035Z,2.22
2019-05-06T01:52:59.795Z,2.22
2019-05-06T01:55:34.211Z,2.20
2019-05-06T01:58:06.873Z,2.19
2019-05-06T02:00:39.661Z,2.15
2019-05-06T02:03:14.730Z,2.13
2019-05-06T02:05:47.259Z,2.10
2019-05-06T02:08:20.000Z,2.09
2019-05-06T02:10:54.555Z,2.05
2019-05-06T02:13:27.185Z,2.01
2019-05-06T02:15:59.875Z,1.95
2019-05-06T02:18:33.970Z,1.93
2019-05-06T02:21:08.485Z,1.92
2019-05-06T02:23:44.148Z,1.90
2019-05-06T02:26:16.926Z,1.90
2019-05-06T02:28:51.095Z,1.91
2019-05-06T02:31:41.586Z,1.91
2019-05-06T02:34:25.900Z,1.89
2019-05-06T02:37:16.375Z,1.85
2019-05-06T02:39:49.126Z,1.84
2019-05-06T02:42:23.937Z,1.81
2019-05-06T02:44:56.218Z,1.77
2019-05-06T02:47:37.256Z,1.73
2019-05-06T02:50:14.616Z,1.69
2019-05-06T02:52:47.301Z,1.66
2019-05-06T02:55:19.853Z,1.61
2019-05-06T02:57:53.635Z,1.56
2019-05-06T03:00:26.732Z,1.53
2019-05-06T03:03:02.730Z,1.51
2019-05-06T03:05:33.825Z,1.55
2019-05-06T03:08:06.480Z,1.54
2019-05-06T03:10:39.236Z,1.57
2019-05-06T03:13:14.240Z,1.61
2019-05-06T03:15:46.445Z,1.63
2019-05-06T03:18:19.250Z,1.59
2019-05-06T03:20:59.903Z,1.57
2019-05-06T03:23:43.312Z,1.56
2019-05-06T03:26:14.529Z,1.55
2019-05-06T03:28:47.156Z,1.55
2019-05-06T03:31:25.307Z,1.61
2019-05-06T03:34:13.207Z,1.68
2019-05-06T03:36:34.918Z,1.73
2019-05-06T03:39:05.762Z,1.84
2019-05-06T03:41:38.872Z,1.89
2019-05-06T03:44:16.286Z,1.96
2019-05-06T03:46:54.432Z,2.10
2019-05-06T03:49:28.790Z,2.22
2019-05-06T03:52:02.788Z,2.29
2019-05-06T03:54:37.295Z,2.42
2019-05-06T03:57:09.898Z,2.63
2019-05-06T03:59:43.557Z,2.80
2019-05-06T04:02:17.796Z,2.97
2019-05-06T04:04:55.824Z,3.26
2019-05-06T04:07:25.280Z,3.47
2019-05-06T04:09:58.014Z,3.61
2019-05-06T04:12:33.668Z,3.74
2019-05-06T04:15:07.792Z,3.86
2019-05-06T04:17:43.803Z,3.93
2019-05-06T04:20:16.977Z,3.96
2019-05-06T04:22:53.256Z,4.16
2019-05-06T04:25:44.800Z,4.57
2019-05-06T04:28:19.100Z,4.99
2019-05-06T04:30:54.564Z,5.39
2019-05-06T04:33:27.123Z,5.79
2019-05-06T04:36:03.393Z,6.22
2019-05-06T04:38:35.335Z,6.57
2019-05-06T04:41:08.141Z,7.06
2019-05-06T04:43:43.619Z,7.36
2019-05-06T04:46:16.935Z,7.51
2019-05-06T04:48:49.727Z,8.27
2019-05-06T04:51:24.791Z,8.82
2019-05-06T04:53:57.389Z,11.03
2019-05-06T04:56:33.174Z,12.22
2019-05-06T04:59:06.240Z,11.82
2019-05-06T05:01:39.545Z,12.35
2019-05-06T05:04:24.658Z,12.35
2019-05-06T05:06:48.136Z,12.95
2019-05-06T05:09:23.083Z,13.13
2019-05-06T05:11:58.158Z,13.85
2019-05-06T05:14:38.335Z,14.50
2019-05-06T05:17:28.020Z,15.35
2019-05-06T05:20:02.127Z,16.34
2019-05-06T05:22:35.730Z,16.45
2019-05-06T05:25:09.075Z,16.44
2019-05-06T05:27:42.190Z,17.60
2019-05-06T05:30:15.760Z,18.09
2019-05-06T05:32:49.086Z,18.95
2019-05-06T05:35:22.719Z,19.35
2019-05-06T05:37:56.949Z,19.04
2019-05-06T05:40:32.068Z,18.05
2019-05-06T05:43:09.081Z,17.40
2019-05-06T05:45:42.411Z,17.00
2019-05-06T05:48:28.810Z,17.06
2019-05-06T05:51:03.285Z,17.01
2019-05-06T05:53:36.064Z,16.53
2019-05-06T05:56:09.261Z,16.80
2019-05-06T05:58:42.527Z,17.02
2019-05-06T06:01:15.228Z,16.75
2019-05-06T06:03:48.125Z,16.59
2019-05-06T06:06:22.160Z,16.59
2019-05-06T06:08:56.540Z,16.79
2019-05-06T06:11:33.389Z,16.91
2019-05-06T06:14:07.758Z,17.15
2019-05-06T06:16:42.320Z,16.99
2019-05-06T06:19:22.129Z,16.81
2019-05-06T06:21:56.537Z,16.63
2019-05-06T06:24:32.229Z,16.61
2019-05-06T06:27:05.859Z,16.67
2019-05-06T06:29:38.374Z,16.57
2019-05-06T06:32:27.936Z,16.38
2019-05-06T06:35:11.487Z,16.24
2019-05-06T06:37:53.220Z,16.02
2019-05-06T06:40:26.800Z,16.09
2019-05-06T06:43:02.206Z,15.53
2019-05-06T06:45:35.650Z,15.15
2019-05-06T06:48:08.630Z,15.51
2019-05-06T06:50:42.643Z,15.71
2019-05-06T06:53:15.596Z,15.33
2019-05-06T06:55:48.325Z,15.40
2019-05-06T06:58:26.296Z,15.36
2019-05-06T07:01:03.139Z,15.31
2019-05-06T07:03:39.295Z,15.32
2019-05-06T07:06:23.819Z,15.27
2019-05-06T07:08:56.697Z,15.84
2019-05-06T07:11:29.515Z,16.14
2019-05-06T07:14:02.716Z,16.13
2019-05-06T07:16:35.409Z,16.23
2019-05-06T07:19:08.230Z,16.06
2019-05-06T07:21:43.544Z,15.76
2019-05-06T07:24:16.330Z,15.49
2019-05-06T07:26:53.550Z,15.84
2019-05-06T07:29:26.729Z,16.31
2019-05-06T07:31:59.835Z,15.86
2019-05-06T07:34:32.286Z,15.51
2019-05-06T07:37:04.685Z,16.23
2019-05-06T07:39:38.355Z,16.64
2019-05-06T07:42:22.712Z,16.95
2019-05-06T07:45:06.420Z,17.38
2019-05-06T07:47:42.631Z,17.26
2019-05-06T07:50:15.765Z,17.58
2019-05-06T07:53:02.379Z,16.32
2019-05-06T07:55:35.115Z,15.87
2019-05-06T07:58:08.108Z,16.00
2019-05-06T08:00:42.300Z,15.77
2019-05-06T08:03:14.980Z,16.13
2019-05-06T08:05:57.503Z,16.44
2019-05-06T08:08:23.066Z,16.47
2019-05-06T08:10:55.655Z,16.85
2019-05-06T08:13:27.936Z,16.96
2019-05-06T08:16:02.271Z,17.10
2019-05-06T08:18:34.575Z,17.01
2019-05-06T08:21:08.535Z,16.97
2019-05-06T08:23:42.887Z,16.51
2019-05-06T08:26:17.792Z,16.84
2019-05-06T08:28:52.615Z,17.30
2019-05-06T08:31:25.015Z,16.75
2019-05-06T08:33:57.556Z,17.01
2019-05-06T08:36:42.634Z,17.44
2019-05-06T08:39:15.555Z,17.60
2019-05-06T08:41:48.255Z,17.66
2019-05-06T08:44:22.479Z,17.18
2019-05-06T08:46:55.297Z,17.06
2019-05-06T08:49:29.275Z,16.54
2019-05-06T08:52:03.177Z,16.76
2019-05-06T08:54:37.875Z,16.83
2019-05-06T08:57:11.903Z,17.22
2019-05-06T08:59:44.485Z,16.42
2019-05-06T09:02:17.515Z,16.21
2019-05-06T09:04:51.815Z,16.49
2019-05-06T09:07:24.296Z,16.44
2019-05-06T09:09:56.936Z,15.67
2019-05-06T09:12:29.595Z,15.52
2019-05-06T09:15:03.505Z,15.43
2019-05-06T09:17:37.594Z,15.40
2019-05-06T09:20:12.901Z,15.31
2019-05-06T09:22:44.895Z,15.05
2019-05-06T09:25:17.595Z,14.98
2019-05-06T09:27:52.668Z,15.04
2019-05-06T09:30:43.072Z,15.08
2019-05-06T09:33:16.454Z,15.10
2019-05-06T09:35:49.195Z,15.19
2019-05-06T09:38:22.842Z,15.25
2019-05-06T09:40:55.407Z,15.42
2019-05-06T09:43:28.316Z,14.98
2019-05-06T09:46:03.555Z,14.64
2019-05-06T09:48:42.443Z,14.74
2019-05-06T09:51:15.355Z,14.63
2019-05-06T09:54:08.156Z,14.71
2019-05-06T09:56:58.798Z,14.44
2019-05-06T09:59:32.173Z,14.04
2019-05-06T10:02:05.608Z,14.41
2019-05-06T10:04:38.935Z,14.64
2019-05-06T10:07:14.295Z,14.53
2019-05-06T10:09:46.715Z,14.49
2019-05-06T10:12:19.781Z,14.58
2019-05-06T10:14:53.211Z,14.93
2019-05-06T10:17:25.903Z,15.24
2019-05-06T10:19:58.795Z,14.83
2019-05-06T10:22:32.438Z,14.91
2019-05-06T10:25:06.496Z,15.22
2019-05-06T10:27:42.212Z,15.02
2019-05-06T10:30:17.616Z,15.22
2019-05-06T10:32:52.886Z,14.92
2019-05-06T10:35:29.169Z,14.62
2019-05-06T10:38:32.815Z,14.70
2019-05-06T10:41:22.483Z,14.95
2019-05-06T10:44:42.787Z,14.97
2019-05-06T10:47:14.355Z,15.13
2019-05-06T10:49:46.857Z,14.82
2019-05-06T10:52:24.134Z,15.64
2019-05-06T10:54:57.135Z,15.76
2019-05-06T10:57:32.825Z,15.48
2019-05-06T11:00:07.866Z,15.15
2019-05-06T11:02:45.975Z,15.55
2019-05-06T11:05:19.111Z,15.59
2019-05-06T11:07:52.677Z,15.14
2019-05-06T11:10:29.528Z,14.75
2019-05-06T11:12:59.114Z,14.49
2019-05-06T11:15:33.025Z,14.54
2019-05-06T11:18:06.215Z,14.39
2019-05-06T11:20:40.093Z,14.15
2019-05-06T11:23:14.144Z,14.06
2019-05-06T11:25:46.536Z,14.11
2019-05-06T11:28:36.475Z,13.82
2019-05-06T11:31:09.374Z,13.60
2019-05-06T11:33:52.596Z,13.41
2019-05-06T11:36:29.496Z,13.72
2019-05-06T11:39:07.600Z,13.65
2019-05-06T11:41:56.487Z,13.70
2019-05-06T11:44:14.475Z,14.04
2019-05-06T11:46:46.895Z,14.18
2019-05-06T11:49:20.325Z,14.14
2019-05-06T11:51:52.599Z,14.51
2019-05-06T11:54:25.137Z,14.40
2019-05-06T11:56:58.578Z,14.67
2019-05-06T11:59:31.335Z,14.80
2019-05-06T12:02:08.275Z,15.04
2019-05-06T12:04:41.940Z,15.53
2019-05-06T12:07:15.699Z,15.26
2019-05-06T12:09:48.826Z,15.36
2019-05-06T12:12:23.343Z,15.14
2019-05-06T12:14:55.675Z,15.40
2019-05-06T12:17:28.035Z,15.64
2019-05-06T12:20:02.990Z,15.45
2019-05-06T12:22:37.795Z,15.44
2019-05-06T12:25:15.301Z,15.74
2019-05-06T12:27:49.495Z,15.59
2019-05-06T12:30:24.556Z,15.94
2019-05-06T12:33:03.238Z,16.00
2019-05-06T12:35:37.835Z,15.79
2019-05-06T12:38:26.708Z,15.43
2019-05-06T12:40:48.895Z,15.57
2019-05-06T12:43:24.436Z,15.82
2019-05-06T12:46:02.960Z,15.52
2019-05-06T12:48:43.972Z,15.65
2019-05-06T12:51:16.916Z,15.89
2019-05-06T12:53:49.395Z,15.93
2019-05-06T12:56:24.395Z,15.55
2019-05-06T12:58:57.315Z,15.32
2019-05-06T13:01:33.496Z,15.40
2019-05-06T13:04:04.831Z,16.03
2019-05-06T13:06:37.565Z,16.27
2019-05-06T13:09:12.420Z,16.33
2019-05-06T13:11:44.055Z,15.77
2019-05-06T13:14:16.500Z,15.98
2019-05-06T13:16:49.137Z,15.80
2019-05-06T13:19:22.815Z,15.77
2019-05-06T13:21:55.659Z,16.09
2019-05-06T13:24:28.156Z,15.93
2019-05-06T13:27:02.608Z,16.20
2019-05-06T13:29:35.713Z,16.43
2019-05-06T13:32:12.674Z,16.60
2019-05-06T13:34:44.958Z,17.11
2019-05-06T13:37:17.842Z,17.17
2019-05-06T13:39:52.768Z,17.35
2019-05-06T13:42:27.055Z,17.31
2019-05-06T13:44:59.456Z,17.23
2019-05-06T13:47:43.776Z,16.95
2019-05-06T13:50:22.910Z,16.83
2019-05-06T13:53:08.041Z,17.12
2019-05-06T13:55:31.096Z,16.75
2019-05-06T13:58:03.761Z,17.15
2019-05-06T14:00:37.015Z,17.52
2019-05-06T14:03:09.535Z,17.63
2019-05-06T14:05:42.579Z,17.54
2019-05-06T14:08:15.186Z,17.06
2019-05-06T14:10:56.796Z,17.09
2019-05-06T14:13:22.099Z,16.41
2019-05-06T14:15:54.675Z,16.10
2019-05-06T14:18:28.075Z,16.03
2019-05-06T14:21:02.919Z,15.79
2019-05-06T14:23:34.835Z,15.52
2019-05-06T14:26:07.415Z,15.49
2019-05-06T14:28:43.041Z,15.78
2019-05-06T14:31:17.185Z,16.03
2019-05-06T14:33:52.095Z,16.19
2019-05-06T14:36:27.542Z,16.02
2019-05-06T14:38:58.936Z,16.12
2019-05-06T14:41:32.747Z,16.08
2019-05-06T14:44:07.511Z,16.34
2019-05-06T14:46:57.192Z,16.04
2019-05-06T14:49:32.377Z,15.62
2019-05-06T14:52:06.054Z,15.50
2019-05-06T14:54:49.485Z,15.09
2019-05-06T14:57:22.928Z,15.21
2019-05-06T14:59:55.970Z,15.34
2019-05-06T15:02:28.917Z,15.59
2019-05-06T15:05:02.988Z,15.38
2019-05-06T15:07:35.965Z,15.25
2019-05-06T15:10:20.311Z,15.19
2019-05-06T15:12:43.591Z,14.62
2019-05-06T15:15:16.939Z,14.76
2019-05-06T15:17:49.476Z,14.87
2019-05-06T15:20:23.027Z,14.85
2019-05-06T15:22:56.360Z,14.70
2019-05-06T15:25:28.985Z,14.40
2019-05-06T15:28:02.545Z,14.65
2019-05-06T15:30:46.080Z,14.42
2019-05-06T15:33:22.465Z,14.10
2019-05-06T15:35:59.506Z,13.59
2019-05-06T15:38:32.603Z,13.82
2019-05-06T15:41:05.411Z,13.80
2019-05-06T15:43:38.250Z,13.48
2019-05-06T15:46:12.217Z,13.47
2019-05-06T15:48:45.030Z,13.45
2019-05-06T15:51:19.220Z,13.38
2019-05-06T15:53:52.961Z,13.35
2019-05-06T15:56:25.881Z,13.23
2019-05-06T15:58:58.310Z,13.28
2019-05-06T16:01:33.213Z,13.48
2019-05-06T16:04:05.499Z,13.69
2019-05-06T16:06:38.355Z,13.78
2019-05-06T16:09:14.219Z,13.73
2019-05-06T16:11:45.155Z,13.75
2019-05-06T16:14:17.585Z,13.61
2019-05-06T16:16:52.677Z,13.80
2019-05-06T16:19:24.964Z,13.86
2019-05-06T16:21:57.989Z,13.83
2019-05-06T16:24:35.244Z,13.81
2019-05-06T16:27:07.949Z,13.85
2019-05-06T16:29:42.888Z,13.61
2019-05-06T16:32:16.740Z,13.38
2019-05-06T16:34:49.816Z,13.29
2019-05-06T16:37:22.453Z,13.17
2019-05-06T16:39:55.015Z,13.20
2019-05-06T16:42:27.861Z,13.05
2019-05-06T16:45:06.963Z,12.90
2019-05-06T16:47:37.656Z,12.89
2019-05-06T16:50:17.375Z,12.69
2019-05-06T16:52:52.341Z,12.68
2019-05-06T16:55:28.899Z,12.68
2019-05-06T16:58:06.265Z,12.65
2019-05-06T17:00:38.870Z,12.57
2019-05-06T17:03:14.593Z,12.41
2019-05-06T17:05:52.002Z,12.36
2019-05-06T17:08:24.995Z,12.38
2019-05-06T17:10:57.786Z,12.33
2019-05-06T17:13:31.078Z,12.28
2019-05-06T17:16:03.789Z,12.26
2019-05-06T17:18:36.490Z,12.30
2019-05-06T17:21:09.201Z,12.22
2019-05-06T17:23:42.319Z,12.18
2019-05-06T17:26:15.076Z,12.10
2019-05-06T17:28:49.216Z,12.01
2019-05-06T17:31:37.135Z,11.89
2019-05-06T17:34:12.823Z,11.76
2019-05-06T17:36:46.047Z,11.71
2019-05-06T17:39:18.660Z,11.61
2019-05-06T17:41:52.192Z,11.51
2019-05-06T17:44:25.290Z,11.44
2019-05-06T17:47:02.653Z,11.33
2019-05-06T17:49:37.045Z,11.27
2019-05-06T17:52:14.226Z,11.15
2019-05-06T17:54:46.786Z,11.09
2019-05-06T17:57:19.440Z,11.02
2019-05-06T17:59:52.824Z,10.98
2019-05-06T18:02:27.202Z,10.89
2019-05-06T18:04:59.680Z,10.80
2019-05-06T18:07:32.785Z,10.69
2019-05-06T18:10:06.200Z,10.51
2019-05-06T18:12:38.956Z,10.38
2019-05-06T18:15:13.377Z,10.28
2019-05-06T18:17:46.244Z,10.17
2019-05-06T18:20:19.125Z,10.07
2019-05-06T18:22:52.502Z,9.95
2019-05-06T18:25:25.435Z,9.84
2019-05-06T18:27:58.005Z,9.71
2019-05-06T18:30:34.289Z,9.60
2019-05-06T18:33:05.287Z,9.48
2019-05-06T18:35:37.965Z,9.19
2019-05-06T18:38:10.505Z,9.31
2019-05-06T18:40:43.175Z,9.23
2019-05-06T18:43:15.905Z,9.18
2019-05-06T18:45:48.815Z,9.10
2019-05-06T18:48:22.440Z,9.00
2019-05-06T18:50:55.175Z,8.91
2019-05-06T18:53:28.945Z,8.80
2019-05-06T18:56:03.116Z,8.64
2019-05-06T18:58:36.030Z,8.59
2019-05-06T19:01:08.966Z,8.53
2019-05-06T19:03:46.461Z,8.42
2019-05-06T19:06:19.035Z,8.45
2019-05-06T19:09:02.629Z,8.40
2019-05-06T19:11:37.070Z,8.31
2019-05-06T19:14:09.656Z,8.34
2019-05-06T19:16:49.854Z,8.25
2019-05-06T19:19:16.695Z,8.27
2019-05-06T19:21:49.225Z,8.23
2019-05-06T19:24:22.669Z,8.21
2019-05-06T19:26:55.474Z,8.16
2019-05-06T19:29:28.300Z,8.12
2019-05-06T19:32:03.037Z,8.08
2019-05-06T19:34:36.240Z,8.05
2019-05-06T19:37:09.132Z,8.00
2019-05-06T19:39:43.120Z,7.96
2019-05-06T19:42:16.105Z,7.92
2019-05-06T19:44:48.806Z,7.89
2019-05-06T19:47:21.431Z,7.87
2019-05-06T19:49:54.290Z,7.84
2019-05-06T19:52:26.926Z,7.80
2019-05-06T19:55:02.924Z,7.77
2019-05-06T19:57:34.804Z,7.78
2019-05-06T20:00:09.080Z,7.78
2019-05-06T20:02:42.936Z,7.80
2019-05-06T20:05:17.505Z,7.84
2019-05-06T20:07:52.230Z,7.90
2019-05-06T20:10:26.529Z,7.96
2019-05-06T20:13:05.276Z,8.02
2019-05-06T20:15:39.055Z,8.09
2019-05-06T20:18:12.894Z,8.23
2019-05-06T20:20:45.685Z,8.23
2019-05-06T20:23:18.215Z,8.30
2019-05-06T20:25:51.926Z,8.37
2019-05-06T20:28:24.795Z,8.43
2019-05-06T20:30:57.585Z,8.50
2019-05-06T20:33:32.539Z,8.50
2019-05-06T20:36:04.499Z,8.58
2019-05-06T20:38:37.151Z,8.61
2019-05-06T20:41:09.745Z,8.59
2019-05-06T20:43:42.413Z,8.67
2019-05-06T20:46:15.020Z,8.71
2019-05-06T20:48:47.680Z,8.73
2019-05-06T20:51:21.957Z,8.75
2019-05-06T20:53:54.745Z,8.75
2019-05-06T20:56:27.521Z,8.72
2019-05-06T20:59:02.381Z,8.76
2019-05-06T21:01:34.880Z,8.78
2019-05-06T21:04:07.600Z,8.73
2019-05-06T21:06:42.418Z,8.77
2019-05-06T21:09:14.800Z,8.77
2019-05-06T21:11:47.510Z,8.76
2019-05-06T21:14:22.551Z,8.72
2019-05-06T21:16:54.720Z,8.72
2019-05-06T21:19:27.541Z,8.70
2019-05-06T21:22:02.182Z,8.66
2019-05-06T21:24:36.196Z,8.63
2019-05-06T21:27:08.821Z,8.52
2019-05-06T21:29:42.104Z,8.52
2019-05-06T21:32:14.775Z,8.46
2019-05-06T21:34:47.360Z,8.33
2019-05-06T21:37:20.461Z,8.17
2019-05-06T21:39:53.050Z,8.17
2019-05-06T21:42:25.740Z,8.10
2019-05-06T21:44:58.500Z,7.97
2019-05-06T21:47:32.542Z,7.86
2019-05-06T21:50:05.860Z,7.86
2019-05-06T21:52:42.272Z,7.75
2019-05-06T21:55:14.799Z,7.69
2019-05-06T21:57:47.074Z,7.47
2019-05-06T22:00:23.382Z,7.47
2019-05-06T22:02:57.870Z,7.46
2019-05-06T22:05:32.073Z,7.40
2019-05-06T22:08:04.900Z,7.36
2019-05-06T22:10:37.860Z,7.31
2019-05-06T22:13:12.596Z,7.28
2019-05-06T22:15:44.509Z,7.23
2019-05-06T22:18:17.045Z,7.23
2019-05-06T22:21:07.145Z,7.23
2019-05-06T22:23:55.418Z,7.23
2019-05-06T22:26:29.049Z,7.23
2019-05-06T22:29:02.159Z,7.24
2019-05-06T22:31:34.840Z,7.25
2019-05-06T22:34:07.665Z,7.24
2019-05-06T22:36:39.949Z,7.25
2019-05-06T22:39:13.566Z,7.26
2019-05-06T22:41:46.095Z,7.28
2019-05-06T22:44:18.780Z,7.29
2019-05-06T22:46:51.549Z,7.25
2019-05-06T22:49:24.824Z,7.22
2019-05-06T22:51:57.373Z,7.17
2019-05-06T22:54:31.976Z,7.01
2019-05-06T22:57:04.056Z,7.01
2019-05-06T22:59:36.975Z,6.91
2019-05-06T23:02:09.350Z,6.82
2019-05-06T23:04:43.618Z,6.72
2019-05-06T23:07:16.350Z,6.63
2019-05-06T23:09:49.500Z,6.56
2019-05-06T23:12:23.149Z,6.52
2019-05-06T23:14:55.717Z,6.43
2019-05-06T23:17:28.431Z,6.34
2019-05-06T23:20:02.322Z,6.32
2019-05-06T23:22:35.286Z,6.26
2019-05-06T23:25:08.740Z,6.19
2019-05-06T23:27:43.887Z,6.18
2019-05-06T23:30:15.730Z,6.15
2019-05-06T23:32:48.125Z,6.08
2019-05-06T23:35:21.995Z,6.06
2019-05-06T23:38:49.050Z,6.03
2019-05-06T23:42:16.194Z,5.91
2019-05-06T23:45:42.876Z,5.82
2019-05-06T23:49:09.759Z,5.77
2019-05-06T23:52:36.635Z,5.70
2019-05-06T23:56:04.080Z,5.62
2019-05-06T23:58:36.625Z,5.53
